Rancagua, Chile
Current Conditions -  °F | °C
As of 12:00 PM on Monday 24 Nov 2014 (Local Time) from SCEL Reporting Station
Overcast Overcast  
Wind Chill: 63°   Ceiling: 16000
Heat Index: 63°   Visibility: 6mi
Dew Point: 46°   Wind: 3mph
Humidity: 55%   Direction: NA
Pressure: 30.03"   Gusts: NA
Location:  34.17°S, 70.74°W
Report Text: SCEL 241600Z VRB03KT 9999 OVC160 17/08 Q1017 NOSIG
Loading
Personal Weather Stations






























Interactive Weather Map New forecast layout! Learn more

10-Day Weather Forecast

Advertisements
Track Severe Weather on mobile